createdAt,value
2023-03-16T00:02:21.370Z,17.48
2023-03-16T00:04:50.605Z,18.15
2023-03-16T00:07:18.588Z,25.02
2023-03-16T00:09:46.061Z,31.67
2023-03-16T00:12:17.007Z,32.97
2023-03-16T00:14:46.470Z,27.63
2023-03-16T00:17:19.768Z,30.08
2023-03-16T00:19:55.576Z,33.42
2023-03-16T00:22:25.500Z,39.55
2023-03-16T00:24:53.196Z,33.00
2023-03-16T00:27:23.291Z,49.38
2023-03-16T00:29:56.474Z,38.03
2023-03-16T00:32:26.794Z,20.67
2023-03-16T00:34:54.764Z,33.95
2023-03-16T00:37:23.951Z,29.08
2023-03-16T00:39:51.938Z,19.50
2023-03-16T00:42:20.491Z,23.98
2023-03-16T00:44:47.692Z,22.85
2023-03-16T00:47:15.470Z,27.52
2023-03-16T00:49:44.628Z,31.20
2023-03-16T00:52:16.836Z,31.75
2023-03-16T00:54:46.502Z,25.60
2023-03-16T00:57:16.793Z,27.58
2023-03-16T00:59:44.106Z,30.17
2023-03-16T01:02:12.992Z,23.00
2023-03-16T01:04:41.498Z,29.23
2023-03-16T01:07:12.727Z,20.48
2023-03-16T01:09:41.554Z,28.48
2023-03-16T01:12:15.785Z,19.33
2023-03-16T01:14:48.782Z,23.13
2023-03-16T01:17:18.433Z,27.52
2023-03-16T01:19:46.479Z,33.42
2023-03-16T01:22:14.243Z,28.30
2023-03-16T01:24:42.909Z,26.55
2023-03-16T01:27:10.564Z,33.63
2023-03-16T01:29:38.721Z,24.08
2023-03-16T01:32:07.715Z,25.58
2023-03-16T01:34:35.711Z,21.73
2023-03-16T01:37:04.041Z,25.00
2023-03-16T01:39:47.365Z,22.02
2023-03-16T01:42:15.281Z,23.77
2023-03-16T01:45:01.825Z,25.42
2023-03-16T01:47:38.690Z,30.45
2023-03-16T01:50:10.557Z,21.25
2023-03-16T01:52:40.465Z,23.20
2023-03-16T01:55:13.493Z,20.08
2023-03-16T01:57:43.856Z,23.70
2023-03-16T02:00:20.099Z,23.05
2023-03-16T02:03:07.642Z,19.13
2023-03-16T02:06:00.289Z,20.05
2023-03-16T02:08:29.963Z,19.67
2023-03-16T02:10:58.227Z,21.42
2023-03-16T02:13:36.965Z,19.88
2023-03-16T02:16:07.746Z,22.73
2023-03-16T02:18:36.736Z,21.45
2023-03-16T02:21:27.423Z,16.52
2023-03-16T02:23:55.537Z,22.65
2023-03-16T02:26:44.953Z,18.50
2023-03-16T02:29:18.992Z,16.48
2023-03-16T02:31:48.127Z,16.20
2023-03-16T02:34:18.081Z,17.20
2023-03-16T02:36:49.202Z,16.27
2023-03-16T02:39:19.875Z,14.77
2023-03-16T02:41:47.941Z,11.68
2023-03-16T02:44:25.364Z,14.55
2023-03-16T02:46:58.615Z,11.15
2023-03-16T02:49:33.059Z,12.77
2023-03-16T02:52:00.435Z,10.45
2023-03-16T02:54:28.088Z,11.75
2023-03-16T02:56:56.431Z,13.60
2023-03-16T02:59:24.824Z,13.38
2023-03-16T03:01:52.058Z,10.90
2023-03-16T03:04:19.523Z,11.35
2023-03-16T03:06:49.324Z,11.32
2023-03-16T03:09:16.730Z,10.05
2023-03-16T03:11:44.390Z,8.85
2023-03-16T03:14:11.623Z,10.35
2023-03-16T03:16:40.765Z,6.78
2023-03-16T03:19:10.221Z,9.77
2023-03-16T03:21:38.851Z,7.78
2023-03-16T03:24:08.776Z,7.13
2023-03-16T03:26:38.368Z,12.30
2023-03-16T03:29:12.533Z,7.75
2023-03-16T03:31:40.138Z,8.50
2023-03-16T03:34:07.987Z,11.68
2023-03-16T03:36:36.011Z,13.18
2023-03-16T03:39:07.355Z,12.77
2023-03-16T03:41:35.688Z,9.73
2023-03-16T03:44:05.211Z,13.02
2023-03-16T03:46:34.733Z,11.55
2023-03-16T03:49:05.516Z,10.48
2023-03-16T03:51:35.339Z,13.25
2023-03-16T03:54:06.381Z,11.77
2023-03-16T03:57:11.916Z,7.93
2023-03-16T03:59:43.789Z,7.80
2023-03-16T04:02:40.778Z,14.73
2023-03-16T04:05:16.119Z,11.23
2023-03-16T04:07:43.733Z,13.13
2023-03-16T04:10:13.184Z,9.30
2023-03-16T04:12:43.365Z,13.02
2023-03-16T04:15:13.476Z,14.23
2023-03-16T04:18:00.060Z,10.57
2023-03-16T04:20:30.035Z,11.65
2023-03-16T04:23:00.992Z,11.40
2023-03-16T04:25:31.069Z,11.45
2023-03-16T04:27:59.922Z,17.65
2023-03-16T04:30:33.192Z,10.10
2023-03-16T04:33:13.274Z,11.43
2023-03-16T04:35:41.955Z,13.27
2023-03-16T04:38:10.986Z,15.20
2023-03-16T04:40:45.954Z,14.25
2023-03-16T04:43:21.039Z,12.30
2023-03-16T04:45:49.740Z,14.40
2023-03-16T04:48:17.651Z,10.70
2023-03-16T04:50:46.542Z,14.30
2023-03-16T04:53:13.884Z,7.90
2023-03-16T04:55:42.300Z,12.13
2023-03-16T04:58:09.891Z,14.27
2023-03-16T05:00:41.576Z,12.13
2023-03-16T05:03:23.025Z,11.00
2023-03-16T05:05:51.247Z,14.07
2023-03-16T05:08:19.126Z,13.38
2023-03-16T05:10:50.171Z,11.82
2023-03-16T05:13:19.450Z,13.98
2023-03-16T05:15:49.015Z,11.75
2023-03-16T05:18:28.566Z,13.85
2023-03-16T05:20:56.905Z,13.05
2023-03-16T05:23:29.510Z,13.25
2023-03-16T05:26:01.326Z,13.20
2023-03-16T05:28:32.240Z,16.17
2023-03-16T05:31:10.304Z,15.90
2023-03-16T05:33:43.441Z,13.70
2023-03-16T05:36:15.232Z,13.05
2023-03-16T05:38:46.645Z,10.88
2023-03-16T05:41:23.357Z,14.43
2023-03-16T05:44:20.469Z,12.35
2023-03-16T05:47:14.578Z,13.75
2023-03-16T05:49:46.731Z,12.10
2023-03-16T05:52:26.357Z,13.88
2023-03-16T05:54:56.680Z,11.50
2023-03-16T05:57:24.365Z,13.38
2023-03-16T05:59:53.531Z,12.15
2023-03-16T06:02:22.479Z,13.48
2023-03-16T06:04:50.552Z,12.38
2023-03-16T06:07:18.805Z,13.00
2023-03-16T06:09:46.670Z,13.25
2023-03-16T06:12:16.854Z,12.63
2023-03-16T06:14:44.615Z,11.52
2023-03-16T06:17:12.042Z,14.80
2023-03-16T06:19:41.709Z,14.30
2023-03-16T06:22:10.572Z,14.55
2023-03-16T06:24:39.411Z,14.63
2023-03-16T06:27:08.355Z,13.02
2023-03-16T06:29:50.564Z,14.15
2023-03-16T06:32:18.451Z,11.68
2023-03-16T06:34:46.391Z,14.40
2023-03-16T06:37:16.339Z,14.15
2023-03-16T06:39:45.223Z,17.10
2023-03-16T06:42:13.058Z,12.48
2023-03-16T06:44:40.598Z,13.63
2023-03-16T06:47:11.018Z,13.07
2023-03-16T06:49:39.335Z,12.38
2023-03-16T06:52:17.316Z,12.00
2023-03-16T06:54:44.840Z,10.82
2023-03-16T06:57:14.410Z,14.15
2023-03-16T06:59:44.082Z,11.75
2023-03-16T07:02:15.601Z,13.63
2023-03-16T07:04:44.423Z,12.57
2023-03-16T07:07:12.703Z,18.27
2023-03-16T07:09:41.886Z,17.00
2023-03-16T07:12:11.124Z,15.27
2023-03-16T07:14:38.638Z,12.45
2023-03-16T07:17:06.999Z,13.05
2023-03-16T07:19:34.956Z,12.65
2023-03-16T07:22:04.285Z,12.07
2023-03-16T07:24:36.364Z,12.73
2023-03-16T07:27:04.477Z,12.60
2023-03-16T07:29:34.719Z,16.42
2023-03-16T07:32:04.365Z,11.15
2023-03-16T07:34:37.187Z,13.32
2023-03-16T07:37:05.886Z,10.25
2023-03-16T07:39:34.966Z,11.63
2023-03-16T07:42:09.056Z,12.75
2023-03-16T07:44:51.941Z,14.50
2023-03-16T07:47:20.526Z,12.07
2023-03-16T07:49:49.136Z,10.80
2023-03-16T07:52:17.540Z,12.77
2023-03-16T07:54:46.543Z,9.48
2023-03-16T07:57:14.913Z,10.77
2023-03-16T07:59:44.422Z,12.63
2023-03-16T08:02:17.396Z,10.00
2023-03-16T08:04:46.566Z,9.57
2023-03-16T08:07:17.417Z,12.63
2023-03-16T08:10:07.044Z,9.65
2023-03-16T08:12:46.958Z,10.93
2023-03-16T08:15:15.962Z,9.32
2023-03-16T08:17:44.546Z,8.90
2023-03-16T08:20:19.571Z,7.95
2023-03-16T08:22:50.172Z,9.27
2023-03-16T08:25:22.515Z,9.68
2023-03-16T08:28:05.315Z,11.65
2023-03-16T08:30:33.579Z,10.13
2023-03-16T08:33:40.051Z,11.20
2023-03-16T08:36:14.304Z,9.85
2023-03-16T08:41:31.193Z,10.60
2023-03-16T08:44:03.559Z,9.85
2023-03-16T08:46:31.814Z,10.20
2023-03-16T08:49:00.693Z,12.20
2023-03-16T08:51:30.125Z,10.70
2023-03-16T08:53:57.885Z,12.88
2023-03-16T08:56:25.777Z,10.48
2023-03-16T08:58:53.720Z,8.73
2023-03-16T09:01:22.650Z,10.95
2023-03-16T09:03:52.055Z,9.98
2023-03-16T09:06:20.160Z,9.52
2023-03-16T09:08:48.400Z,9.30
2023-03-16T09:11:19.173Z,8.82
2023-03-16T09:13:47.765Z,9.85
2023-03-16T09:16:16.787Z,8.57
2023-03-16T09:18:44.378Z,10.98
2023-03-16T09:21:16.211Z,11.50
2023-03-16T09:23:44.465Z,10.73
2023-03-16T09:26:13.590Z,10.73
2023-03-16T09:28:48.335Z,9.48
2023-03-16T09:31:21.465Z,7.82
2023-03-16T09:33:50.488Z,9.00
2023-03-16T09:36:19.023Z,7.97
2023-03-16T09:38:47.624Z,6.70
2023-03-16T09:41:40.732Z,8.60
2023-03-16T09:44:14.402Z,7.03
2023-03-16T09:46:49.071Z,7.75
2023-03-16T09:49:21.600Z,10.27
2023-03-16T09:51:59.670Z,9.00
2023-03-16T09:54:52.349Z,7.57
2023-03-16T09:57:36.153Z,8.38
2023-03-16T10:00:22.442Z,8.77
2023-03-16T10:02:50.112Z,9.70
2023-03-16T10:05:22.166Z,8.35
2023-03-16T10:08:04.684Z,8.30
2023-03-16T10:11:12.673Z,8.43
2023-03-16T10:13:46.551Z,7.47
2023-03-16T10:16:21.867Z,9.98
2023-03-16T10:18:54.614Z,7.80
2023-03-16T10:21:25.100Z,8.70
2023-03-16T10:23:56.495Z,9.38
2023-03-16T10:26:30.302Z,8.48
2023-03-16T10:28:58.136Z,9.75
2023-03-16T10:31:26.248Z,9.00
2023-03-16T10:34:03.258Z,7.07
2023-03-16T10:36:44.740Z,10.02
2023-03-16T10:39:17.091Z,9.38
2023-03-16T10:41:55.215Z,9.00
2023-03-16T10:44:29.276Z,8.25
2023-03-16T10:47:04.360Z,6.15
2023-03-16T10:49:47.382Z,10.50
2023-03-16T10:52:16.698Z,9.40
2023-03-16T10:55:10.750Z,10.40
2023-03-16T10:57:43.610Z,7.78
2023-03-16T11:00:21.424Z,7.10
2023-03-16T11:02:51.806Z,10.65
2023-03-16T11:05:20.183Z,9.73
2023-03-16T11:08:19.737Z,9.07
2023-03-16T11:10:58.220Z,9.18
2023-03-16T11:13:35.141Z,11.88
2023-03-16T11:16:15.230Z,12.13
2023-03-16T11:18:50.756Z,11.10
2023-03-16T11:21:52.133Z,14.75
2023-03-16T11:24:43.666Z,11.50
2023-03-16T11:27:33.831Z,9.88
2023-03-16T11:30:07.660Z,7.68
2023-03-16T11:32:40.796Z,9.80
2023-03-16T11:35:31.540Z,9.95
2023-03-16T11:38:09.834Z,8.90
2023-03-16T11:40:56.277Z,8.88
2023-03-16T11:43:48.177Z,10.55
2023-03-16T11:46:27.731Z,11.13
2023-03-16T11:49:34.561Z,14.43
2023-03-16T11:52:33.872Z,14.45
2023-03-16T11:55:22.898Z,9.30
2023-03-16T11:58:23.642Z,11.65
2023-03-16T12:01:26.295Z,9.70
2023-03-16T12:04:21.257Z,10.82
2023-03-16T12:07:03.915Z,9.90
2023-03-16T12:09:45.662Z,13.10
2023-03-16T12:12:37.955Z,13.45
2023-03-16T12:15:35.424Z,13.47
2023-03-16T12:18:26.987Z,9.30
2023-03-16T12:21:03.862Z,8.50
2023-03-16T12:23:39.857Z,10.13
2023-03-16T12:26:09.081Z,12.60
2023-03-16T12:28:37.783Z,10.00
2023-03-16T12:31:27.978Z,11.07
2023-03-16T12:34:34.927Z,13.88
2023-03-16T12:37:20.568Z,14.35
2023-03-16T12:40:34.204Z,10.93
2023-03-16T12:46:14.617Z,22.10
2023-03-16T12:49:02.313Z,9.83
2023-03-16T12:51:41.846Z,16.30
2023-03-16T12:54:24.168Z,16.27
2023-03-16T12:56:56.042Z,10.25
2023-03-16T12:59:25.522Z,12.13
2023-03-16T13:01:59.777Z,9.88
2023-03-16T13:04:38.799Z,13.52
2023-03-16T13:07:31.613Z,12.95
2023-03-16T13:10:15.192Z,11.82
2023-03-16T13:12:44.684Z,9.13
2023-03-16T13:15:27.222Z,10.60
2023-03-16T13:18:10.182Z,10.77
2023-03-16T13:20:51.773Z,11.00
2023-03-16T13:23:19.446Z,7.65
2023-03-16T13:26:16.672Z,11.23
2023-03-16T13:28:52.847Z,8.13
2023-03-16T13:31:29.608Z,8.57
2023-03-16T13:34:00.580Z,12.77
2023-03-16T13:36:33.009Z,11.40
2023-03-16T13:39:21.309Z,11.07
2023-03-16T13:42:18.129Z,10.00
2023-03-16T13:44:46.559Z,12.45
2023-03-16T13:47:19.375Z,9.93
2023-03-16T13:49:50.553Z,14.90
2023-03-16T13:52:22.880Z,11.50
2023-03-16T13:54:52.840Z,8.93
2023-03-16T13:57:27.998Z,8.43
2023-03-16T14:00:20.504Z,9.30
2023-03-16T14:02:53.695Z,7.43
2023-03-16T14:05:33.727Z,8.15
2023-03-16T14:08:02.458Z,9.10
2023-03-16T14:10:35.890Z,9.00
2023-03-16T14:13:09.798Z,7.53
2023-03-16T14:15:39.351Z,8.63
2023-03-16T14:18:17.086Z,8.07
2023-03-16T14:20:45.488Z,8.27
2023-03-16T14:23:36.697Z,8.57
2023-03-16T14:26:07.217Z,9.73
2023-03-16T14:28:35.160Z,5.57
2023-03-16T14:31:20.053Z,8.50
2023-03-16T14:33:49.277Z,7.70
2023-03-16T14:36:20.106Z,6.75
2023-03-16T14:38:49.527Z,7.53
2023-03-16T14:41:27.864Z,8.50
2023-03-16T14:43:59.246Z,8.95
2023-03-16T14:46:41.806Z,9.30
2023-03-16T14:49:28.390Z,8.10
2023-03-16T14:52:22.740Z,7.32
2023-03-16T14:54:51.797Z,6.47
2023-03-16T14:57:20.652Z,7.13
2023-03-16T14:59:49.718Z,8.02
2023-03-16T15:02:32.701Z,6.57
2023-03-16T15:05:02.500Z,6.63
2023-03-16T15:07:36.136Z,8.32
2023-03-16T15:10:11.244Z,5.05
2023-03-16T15:12:41.509Z,7.85
2023-03-16T15:15:17.609Z,3.47
2023-03-16T15:17:49.508Z,3.70
2023-03-16T15:20:26.576Z,5.00
2023-03-16T15:22:55.587Z,4.30
2023-03-16T15:25:42.459Z,4.20
2023-03-16T15:28:16.921Z,4.45
2023-03-16T15:30:53.822Z,4.25
2023-03-16T15:33:24.613Z,6.30
2023-03-16T15:35:56.153Z,5.57
2023-03-16T15:38:47.843Z,5.78
2023-03-16T15:41:17.460Z,7.93
2023-03-16T15:43:46.747Z,9.82
2023-03-16T15:46:15.702Z,6.38
2023-03-16T15:48:44.636Z,8.77
2023-03-16T15:51:22.359Z,6.72
2023-03-16T15:54:00.294Z,9.07
2023-03-16T15:56:32.346Z,8.45
2023-03-16T15:59:08.162Z,8.02
2023-03-16T16:01:46.445Z,9.52
2023-03-16T16:04:17.787Z,4.25
2023-03-16T16:06:46.404Z,6.40
2023-03-16T16:09:14.482Z,3.70
2023-03-16T16:11:43.270Z,5.55
2023-03-16T16:14:23.630Z,2.78
2023-03-16T16:16:52.236Z,4.28
2023-03-16T16:19:19.817Z,4.35
2023-03-16T16:21:48.312Z,3.25
2023-03-16T16:24:18.087Z,6.05
2023-03-16T16:26:54.873Z,5.28
2023-03-16T16:29:25.488Z,5.38
2023-03-16T16:31:53.094Z,6.70
2023-03-16T16:34:24.799Z,2.95
2023-03-16T16:36:53.302Z,3.70
2023-03-16T16:39:21.315Z,3.42
2023-03-16T16:41:51.087Z,4.05
2023-03-16T16:44:23.876Z,4.82
2023-03-16T16:46:52.582Z,3.78
2023-03-16T16:49:24.229Z,5.90
2023-03-16T16:51:53.391Z,6.57
2023-03-16T16:54:26.183Z,4.18
2023-03-16T16:59:28.338Z,4.07
2023-03-16T17:01:56.756Z,3.00
2023-03-16T17:04:27.241Z,4.05
2023-03-16T17:06:58.999Z,8.70
2023-03-16T17:09:28.223Z,3.25
2023-03-16T17:11:59.144Z,3.45
2023-03-16T17:14:28.659Z,3.88
2023-03-16T17:16:57.329Z,4.10
2023-03-16T17:19:28.158Z,3.90
2023-03-16T17:21:58.562Z,3.42
2023-03-16T17:24:26.095Z,4.90
2023-03-16T17:26:57.660Z,3.85
2023-03-16T17:29:29.417Z,2.70
2023-03-16T17:31:56.606Z,3.87
2023-03-16T17:34:29.424Z,5.35
2023-03-16T17:36:56.837Z,4.28
2023-03-16T17:39:30.117Z,4.95
2023-03-16T17:42:12.331Z,4.68
2023-03-16T17:44:46.128Z,3.08
2023-03-16T17:47:18.531Z,3.72
2023-03-16T17:49:49.101Z,3.53
2023-03-16T17:52:20.018Z,4.72
2023-03-16T17:54:48.578Z,4.72
2023-03-16T17:57:22.954Z,2.60
2023-03-16T17:59:50.526Z,3.25
2023-03-16T18:02:50.110Z,3.47
2023-03-16T18:05:38.701Z,4.57
2023-03-16T18:08:28.418Z,4.57
2023-03-16T18:11:08.056Z,3.30
2023-03-16T18:13:38.508Z,3.33
2023-03-16T18:16:08.841Z,3.35
2023-03-16T18:18:41.951Z,4.35
2023-03-16T18:21:22.373Z,2.08
2023-03-16T18:23:51.155Z,1.38
2023-03-16T18:26:19.944Z,5.07
2023-03-16T18:28:49.263Z,2.97
2023-03-16T18:31:19.427Z,3.33
2023-03-16T18:33:49.694Z,4.25
2023-03-16T18:36:29.963Z,4.03
2023-03-16T18:39:00.163Z,2.35
2023-03-16T18:41:30.124Z,3.88
2023-03-16T18:44:01.020Z,1.90
2023-03-16T18:46:41.941Z,3.50
2023-03-16T18:49:39.461Z,1.60
2023-03-16T18:52:21.308Z,4.68
2023-03-16T18:54:49.365Z,2.90
2023-03-16T18:57:19.744Z,2.85
2023-03-16T18:59:47.875Z,7.75
2023-03-16T19:02:31.017Z,6.20
2023-03-16T19:05:00.637Z,4.78
2023-03-16T19:07:43.323Z,2.13
2023-03-16T19:13:01.139Z,2.60
2023-03-16T19:15:32.178Z,3.67
2023-03-16T19:18:00.654Z,1.10
2023-03-16T19:20:30.701Z,1.70
2023-03-16T19:23:06.971Z,1.85
2023-03-16T19:25:39.949Z,4.38
2023-03-16T19:28:38.319Z,0.95
2023-03-16T19:31:16.593Z,3.38
2023-03-16T19:33:44.320Z,1.70
2023-03-16T19:36:19.260Z,1.15
2023-03-16T19:38:46.764Z,0.82
2023-03-16T19:41:32.653Z,0.98
2023-03-16T19:44:17.136Z,2.40
2023-03-16T19:46:45.533Z,1.30
2023-03-16T19:49:24.435Z,2.63
2023-03-16T19:51:53.401Z,1.70
2023-03-16T19:54:24.619Z,1.50
2023-03-16T19:56:53.985Z,1.63
2023-03-16T19:59:21.505Z,2.17
2023-03-16T20:01:48.988Z,1.67
2023-03-16T20:04:23.355Z,0.98
2023-03-16T20:06:51.217Z,2.85
2023-03-16T20:09:18.788Z,2.20
2023-03-16T20:11:48.090Z,2.00
2023-03-16T20:14:21.269Z,1.30
2023-03-16T20:16:49.646Z,3.08
2023-03-16T20:19:16.895Z,1.30
2023-03-16T20:21:44.376Z,0.65
2023-03-16T20:24:21.155Z,1.58
2023-03-16T20:26:53.753Z,2.25
2023-03-16T20:32:01.547Z,0.88
2023-03-16T20:34:31.799Z,1.45
2023-03-16T20:37:00.000Z,1.83
2023-03-16T20:39:28.064Z,2.30
2023-03-16T20:41:55.944Z,1.55
2023-03-16T20:44:25.695Z,1.73
2023-03-16T20:46:53.487Z,1.00
2023-03-16T20:49:25.403Z,2.05
2023-03-16T20:51:52.887Z,3.00
2023-03-16T20:54:20.893Z,1.45
2023-03-16T20:56:48.306Z,1.48
2023-03-16T20:59:30.320Z,1.38
2023-03-16T21:01:57.711Z,3.88
2023-03-16T21:04:27.934Z,1.00
2023-03-16T21:06:57.029Z,1.65
2023-03-16T21:09:24.260Z,0.55
2023-03-16T21:11:51.954Z,2.53
2023-03-16T21:14:24.664Z,0.88
2023-03-16T21:19:23.123Z,1.10
2023-03-16T21:21:50.985Z,0.52
2023-03-16T21:24:18.279Z,1.55
2023-03-16T21:26:47.824Z,2.30
2023-03-16T21:29:20.903Z,2.35
2023-03-16T21:31:48.836Z,0.82
2023-03-16T21:34:37.140Z,0.47
2023-03-16T21:37:14.385Z,1.45
2023-03-16T21:39:43.444Z,0.63
2023-03-16T21:42:11.234Z,0.85
2023-03-16T21:44:38.508Z,2.08
2023-03-16T21:47:18.433Z,3.00
2023-03-16T21:49:45.810Z,5.20
2023-03-16T21:52:23.750Z,2.17
2023-03-16T21:54:56.204Z,4.10
2023-03-16T21:57:23.929Z,4.95
2023-03-16T21:59:51.434Z,1.60
2023-03-16T22:02:20.782Z,2.72
2023-03-16T22:04:48.964Z,3.15
2023-03-16T22:07:16.862Z,3.33
2023-03-16T22:09:44.112Z,2.85
2023-03-16T22:12:13.556Z,1.35
2023-03-16T22:14:41.350Z,2.17
2023-03-16T22:17:21.127Z,2.38
2023-03-16T22:19:48.901Z,1.02
2023-03-16T22:22:17.632Z,0.75
2023-03-16T22:24:45.566Z,1.33
2023-03-16T22:27:21.840Z,4.47
2023-03-16T22:29:51.366Z,2.17
2023-03-16T22:32:22.247Z,2.28
2023-03-16T22:34:53.219Z,1.40
2023-03-16T22:37:24.544Z,2.13
2023-03-16T22:39:53.018Z,3.13
2023-03-16T22:42:29.587Z,1.40
2023-03-16T22:44:58.209Z,3.80
2023-03-16T22:47:28.818Z,1.83
2023-03-16T22:49:57.150Z,0.32
2023-03-16T22:52:33.692Z,1.05
2023-03-16T22:55:03.465Z,0.52
2023-03-16T22:57:31.492Z,1.92
2023-03-16T23:00:00.150Z,1.38
2023-03-16T23:02:29.261Z,1.65
2023-03-16T23:04:56.519Z,1.35
2023-03-16T23:07:24.363Z,1.02
2023-03-16T23:09:52.699Z,1.02
2023-03-16T23:12:21.877Z,1.50
2023-03-16T23:14:49.625Z,1.23
2023-03-16T23:17:19.987Z,1.13
2023-03-16T23:19:48.390Z,1.25
2023-03-16T23:22:16.600Z,1.48
2023-03-16T23:24:46.038Z,1.92
2023-03-16T23:27:19.434Z,0.82
2023-03-16T23:29:47.009Z,3.53
2023-03-16T23:32:17.397Z,1.55
2023-03-16T23:34:45.441Z,2.38
2023-03-16T23:37:13.209Z,2.03
2023-03-16T23:39:40.548Z,1.55
2023-03-16T23:42:08.204Z,0.88
2023-03-16T23:44:36.649Z,3.47
2023-03-16T23:47:03.916Z,0.57
2023-03-16T23:49:37.872Z,2.20
2023-03-16T23:52:05.654Z,1.92
2023-03-16T23:54:33.643Z,1.88
2023-03-16T23:57:01.396Z,3.72
2023-03-16T23:59:28.961Z,3.20
